createdAt,value
2023-06-27T00:00:18.767Z,99.90
2023-06-27T00:03:07.477Z,99.90
2023-06-27T00:05:36.410Z,99.90
2023-06-27T00:08:03.794Z,99.90
2023-06-27T00:10:31.255Z,99.90
2023-06-27T00:12:58.678Z,99.90
2023-06-27T00:15:28.357Z,99.90
2023-06-27T00:17:56.797Z,99.90
2023-06-27T00:20:24.197Z,99.90
2023-06-27T00:22:51.602Z,99.90
2023-06-27T00:25:21.106Z,99.90
2023-06-27T00:27:48.386Z,99.90
2023-06-27T00:30:15.932Z,99.90
2023-06-27T00:32:43.399Z,99.90
2023-06-27T00:35:10.786Z,99.90
2023-06-27T00:37:38.100Z,99.90
2023-06-27T00:40:06.136Z,99.90
2023-06-27T00:42:33.546Z,99.90
2023-06-27T00:45:00.853Z,99.90
2023-06-27T00:47:28.216Z,99.90
2023-06-27T00:49:55.642Z,99.90
2023-06-27T00:52:23.408Z,99.90
2023-06-27T00:54:51.563Z,99.90
2023-06-27T00:57:19.294Z,99.90
2023-06-27T00:59:47.220Z,99.90
2023-06-27T01:02:14.568Z,99.90
2023-06-27T01:04:41.983Z,99.90
2023-06-27T01:07:16.912Z,99.90
2023-06-27T01:09:51.542Z,99.90
2023-06-27T01:12:25.580Z,99.90
2023-06-27T01:14:58.322Z,99.90
2023-06-27T01:17:26.531Z,99.90
2023-06-27T01:19:55.336Z,99.90
2023-06-27T01:22:34.136Z,99.90
2023-06-27T01:25:02.992Z,99.90
2023-06-27T01:27:30.348Z,99.90
2023-06-27T01:29:58.352Z,99.90
2023-06-27T01:32:35.127Z,99.90
2023-06-27T01:35:13.373Z,99.90
2023-06-27T01:37:47.302Z,99.90
2023-06-27T01:40:19.135Z,99.90
2023-06-27T01:42:56.325Z,99.90
2023-06-27T01:45:24.752Z,99.90
2023-06-27T01:47:53.553Z,99.90
2023-06-27T01:50:20.962Z,99.90
2023-06-27T01:52:48.515Z,99.90
2023-06-27T01:55:15.770Z,99.90
2023-06-27T01:57:43.497Z,99.90
2023-06-27T02:00:11.966Z,99.90
2023-06-27T02:02:39.408Z,99.90
2023-06-27T02:05:07.281Z,99.90
2023-06-27T02:07:34.696Z,99.90
2023-06-27T02:10:02.371Z,99.90
2023-06-27T02:12:29.678Z,99.90
2023-06-27T02:14:56.966Z,99.90
2023-06-27T02:17:24.358Z,99.90
2023-06-27T02:19:51.678Z,99.90
2023-06-27T02:22:18.946Z,99.90
2023-06-27T02:24:46.354Z,99.90
2023-06-27T02:27:14.667Z,99.90
2023-06-27T02:29:41.988Z,99.90
2023-06-27T02:32:09.468Z,99.90
2023-06-27T02:34:36.896Z,99.90
2023-06-27T02:37:04.449Z,99.90
2023-06-27T02:39:31.744Z,99.90
2023-06-27T02:41:59.003Z,99.90
2023-06-27T02:44:26.238Z,99.90
2023-06-27T02:46:53.990Z,99.90
2023-06-27T02:49:21.311Z,99.90
2023-06-27T02:51:48.675Z,99.90
2023-06-27T02:54:16.049Z,99.90
2023-06-27T02:56:43.454Z,99.90
2023-06-27T02:59:10.825Z,99.90
2023-06-27T03:01:38.142Z,99.90
2023-06-27T03:04:18.427Z,99.90
2023-06-27T03:06:46.768Z,99.90
2023-06-27T03:09:14.192Z,99.90
2023-06-27T03:11:41.851Z,99.90
2023-06-27T03:14:09.185Z,99.90
2023-06-27T03:16:36.633Z,99.90
2023-06-27T03:19:03.981Z,99.90
2023-06-27T03:21:31.403Z,99.90
2023-06-27T03:23:58.730Z,99.90
2023-06-27T03:26:29.336Z,99.90
2023-06-27T03:28:56.777Z,99.90
2023-06-27T03:31:26.184Z,99.90
2023-06-27T03:33:58.353Z,99.90
2023-06-27T03:36:25.838Z,99.90
2023-06-27T03:38:53.388Z,99.90
2023-06-27T03:41:20.924Z,99.90
2023-06-27T03:43:48.248Z,99.90
2023-06-27T03:46:15.712Z,99.90
2023-06-27T03:48:42.978Z,99.90
2023-06-27T03:51:10.611Z,99.90
2023-06-27T03:53:37.930Z,99.90
2023-06-27T03:56:05.716Z,99.90
2023-06-27T03:58:34.041Z,99.90
2023-06-27T04:01:01.298Z,99.90
2023-06-27T04:03:28.820Z,99.90
2023-06-27T04:05:56.291Z,99.90
2023-06-27T04:08:23.638Z,99.90
2023-06-27T04:10:50.964Z,99.90
2023-06-27T04:13:18.289Z,99.90
2023-06-27T04:15:45.567Z,99.90
2023-06-27T04:18:12.947Z,99.90
2023-06-27T04:20:40.522Z,99.90
2023-06-27T04:23:07.859Z,99.90
2023-06-27T04:25:37.453Z,99.90
2023-06-27T04:28:05.338Z,99.90
2023-06-27T04:30:32.787Z,99.90
2023-06-27T04:33:00.085Z,99.90
2023-06-27T04:35:27.505Z,99.90
2023-06-27T04:37:54.993Z,99.90
2023-06-27T04:40:22.290Z,99.90
2023-06-27T04:42:49.769Z,99.90
2023-06-27T04:45:17.099Z,99.90
2023-06-27T04:47:44.525Z,99.90
2023-06-27T04:50:15.988Z,99.90
2023-06-27T04:52:44.714Z,99.90
2023-06-27T04:55:14.360Z,99.90
2023-06-27T04:57:41.832Z,99.90
2023-06-27T05:00:12.961Z,99.90
2023-06-27T05:02:48.996Z,99.90
2023-06-27T05:05:17.770Z,99.90
2023-06-27T05:07:45.265Z,99.90
2023-06-27T05:10:12.572Z,99.90
2023-06-27T05:12:39.780Z,99.90
2023-06-27T05:15:07.724Z,99.90
2023-06-27T05:17:35.147Z,99.90
2023-06-27T05:20:02.543Z,99.90
2023-06-27T05:22:29.938Z,99.90
2023-06-27T05:24:57.302Z,99.90
2023-06-27T05:27:24.737Z,99.90
2023-06-27T05:29:52.124Z,99.90
2023-06-27T05:32:19.666Z,99.90
2023-06-27T05:34:49.855Z,99.90
2023-06-27T05:37:17.462Z,99.90
2023-06-27T05:39:44.816Z,99.90
2023-06-27T05:42:12.279Z,99.90
2023-06-27T05:44:39.663Z,99.90
2023-06-27T05:47:07.363Z,99.90
2023-06-27T05:49:35.107Z,99.90
2023-06-27T05:52:02.481Z,99.90
2023-06-27T05:54:29.926Z,99.90
2023-06-27T05:56:57.380Z,99.90
2023-06-27T05:59:24.905Z,99.90
2023-06-27T06:01:52.797Z,99.90
2023-06-27T06:04:20.670Z,99.90
2023-06-27T06:06:48.184Z,99.90
2023-06-27T06:09:15.604Z,99.90
2023-06-27T06:11:42.965Z,99.90
2023-06-27T06:14:10.400Z,99.90
2023-06-27T06:16:37.985Z,99.90
2023-06-27T06:19:05.535Z,99.90
2023-06-27T06:21:33.302Z,99.90
2023-06-27T06:24:00.998Z,99.90
2023-06-27T06:26:28.734Z,99.90
2023-06-27T06:28:56.171Z,99.90
2023-06-27T06:31:25.969Z,99.90
2023-06-27T06:33:54.875Z,99.90
2023-06-27T06:36:22.333Z,99.90
2023-06-27T06:38:49.898Z,99.90
2023-06-27T06:41:17.227Z,99.90
2023-06-27T06:43:44.525Z,99.90
2023-06-27T06:46:12.317Z,99.90
2023-06-27T06:48:39.733Z,99.90
2023-06-27T06:51:07.087Z,97.60
2023-06-27T06:53:34.683Z,94.50
2023-06-27T06:56:02.001Z,94.90
2023-06-27T06:58:29.423Z,99.90
2023-06-27T07:00:56.852Z,99.90
2023-06-27T07:03:24.393Z,97.80
2023-06-27T07:05:51.828Z,97.70
2023-06-27T07:08:19.667Z,99.70
2023-06-27T07:10:47.444Z,99.50
2023-06-27T07:13:14.692Z,96.10
2023-06-27T07:15:42.399Z,93.00
2023-06-27T07:18:10.195Z,91.70
2023-06-27T07:20:37.553Z,96.60
2023-06-27T07:23:04.857Z,94.10
2023-06-27T07:25:32.354Z,90.20
2023-06-27T07:27:59.633Z,90.90
2023-06-27T07:30:27.176Z,95.10
2023-06-27T07:32:55.047Z,99.10
2023-06-27T07:35:22.572Z,99.90
2023-06-27T07:37:49.990Z,99.90
2023-06-27T07:40:17.297Z,99.90
2023-06-27T07:42:44.580Z,99.90
2023-06-27T07:45:12.055Z,99.90
2023-06-27T07:47:39.599Z,99.90
2023-06-27T07:50:07.425Z,94.50
2023-06-27T07:52:35.846Z,90.00
2023-06-27T07:55:03.416Z,89.00
2023-06-27T07:57:30.669Z,91.50
2023-06-27T07:59:58.014Z,91.80
2023-06-27T08:02:26.625Z,91.20
2023-06-27T08:04:54.166Z,93.20
2023-06-27T08:07:21.481Z,97.30
2023-06-27T08:09:48.996Z,99.90
2023-06-27T08:12:16.704Z,99.90
2023-06-27T08:14:46.450Z,99.90
2023-06-27T08:17:13.706Z,99.90
2023-06-27T08:19:41.127Z,99.90
2023-06-27T08:22:08.417Z,99.90
2023-06-27T08:24:35.718Z,99.90
2023-06-27T08:27:03.063Z,93.30
2023-06-27T08:29:30.349Z,90.30
2023-06-27T08:32:00.551Z,85.20
2023-06-27T08:34:29.815Z,84.60
2023-06-27T08:36:57.306Z,84.50
2023-06-27T08:39:25.656Z,78.10
2023-06-27T08:41:52.945Z,76.00
2023-06-27T08:44:20.302Z,73.90
2023-06-27T08:46:48.822Z,83.90
2023-06-27T08:49:23.127Z,91.00
2023-06-27T08:51:52.138Z,95.80
2023-06-27T08:54:29.324Z,99.90
2023-06-27T08:56:57.062Z,95.50
2023-06-27T08:59:27.638Z,87.10
2023-06-27T09:01:57.237Z,73.90
2023-06-27T09:04:24.995Z,72.60
2023-06-27T09:06:52.987Z,70.00
2023-06-27T09:09:20.723Z,71.30
2023-06-27T09:11:48.360Z,77.70
2023-06-27T09:14:15.747Z,83.20
2023-06-27T09:16:43.720Z,83.60
2023-06-27T09:19:11.253Z,75.20
2023-06-27T09:21:39.641Z,69.10
2023-06-27T09:24:08.150Z,64.60
2023-06-27T09:26:35.658Z,64.40
2023-06-27T09:29:03.291Z,70.00
2023-06-27T09:31:31.827Z,78.90
2023-06-27T09:34:09.622Z,77.80
2023-06-27T09:39:18.404Z,67.40
2023-06-27T09:41:48.718Z,65.10
2023-06-27T09:44:20.865Z,62.40
2023-06-27T09:46:49.791Z,60.40
2023-06-27T09:49:18.378Z,63.40
2023-06-27T09:51:47.579Z,59.90
2023-06-27T09:54:18.485Z,59.40
2023-06-27T09:56:49.947Z,61.40
2023-06-27T09:59:23.430Z,69.00
2023-06-27T10:01:53.130Z,69.90
2023-06-27T10:04:38.275Z,69.50
2023-06-27T10:07:09.370Z,74.90
2023-06-27T10:09:39.180Z,68.50
2023-06-27T10:12:08.691Z,60.00
2023-06-27T10:14:36.666Z,59.00
2023-06-27T10:17:07.411Z,63.30
2023-06-27T10:19:37.744Z,60.80
2023-06-27T10:22:12.326Z,59.80
2023-06-27T10:24:42.594Z,64.50
2023-06-27T10:27:14.419Z,66.80
2023-06-27T10:29:43.245Z,61.90
2023-06-27T10:32:10.990Z,58.70
2023-06-27T10:34:43.888Z,58.40
2023-06-27T10:37:23.935Z,57.50
2023-06-27T10:39:59.054Z,57.60
2023-06-27T10:42:26.411Z,56.80
2023-06-27T10:45:22.715Z,56.80
2023-06-27T10:47:50.033Z,64.50
2023-06-27T10:50:23.302Z,61.70
2023-06-27T10:53:01.579Z,58.20
2023-06-27T10:55:30.290Z,60.50
2023-06-27T10:58:12.310Z,62.30
2023-06-27T11:00:44.675Z,62.90
2023-06-27T11:03:12.433Z,62.70
2023-06-27T11:05:53.291Z,58.90
2023-06-27T11:08:22.484Z,58.60
2023-06-27T11:10:51.627Z,58.10
2023-06-27T11:13:23.981Z,60.90
2023-06-27T11:15:53.876Z,64.30
2023-06-27T11:18:22.781Z,67.80
2023-06-27T11:20:51.488Z,71.00
2023-06-27T11:23:21.699Z,72.60
2023-06-27T11:25:49.996Z,73.70
2023-06-27T11:28:19.574Z,64.70
2023-06-27T11:30:47.239Z,61.70
2023-06-27T11:33:24.988Z,64.90
2023-06-27T11:35:52.357Z,70.80
2023-06-27T11:38:26.637Z,80.40
2023-06-27T11:40:54.523Z,91.70
2023-06-27T11:43:22.242Z,99.90
2023-06-27T11:45:54.113Z,99.80
2023-06-27T11:48:22.027Z,99.90
2023-06-27T11:51:05.273Z,96.30
2023-06-27T11:53:32.755Z,93.40
2023-06-27T11:56:13.777Z,93.20
2023-06-27T11:58:48.996Z,96.90
2023-06-27T12:01:18.116Z,99.50
2023-06-27T12:03:50.623Z,97.30
2023-06-27T12:06:35.439Z,97.50
2023-06-27T12:09:02.794Z,96.80
2023-06-27T12:11:34.220Z,98.00
2023-06-27T12:14:02.695Z,95.80
2023-06-27T12:16:35.038Z,97.50
2023-06-27T12:19:08.801Z,95.70
2023-06-27T12:21:36.635Z,94.30
2023-06-27T12:24:06.004Z,95.20
2023-06-27T12:26:33.580Z,94.00
2023-06-27T12:29:03.836Z,95.40
2023-06-27T12:31:31.584Z,96.90
2023-06-27T12:34:00.885Z,97.60
2023-06-27T12:36:28.759Z,95.50
2023-06-27T12:38:56.155Z,95.60
2023-06-27T12:41:24.565Z,93.90
2023-06-27T12:43:52.048Z,94.80
2023-06-27T12:46:19.518Z,96.40
2023-06-27T12:48:47.455Z,96.70
2023-06-27T12:51:17.623Z,99.90
2023-06-27T12:53:46.981Z,99.90
2023-06-27T12:56:14.331Z,99.90
2023-06-27T12:58:43.911Z,99.90
2023-06-27T13:01:11.647Z,99.90
2023-06-27T13:03:39.176Z,99.90
2023-06-27T13:06:06.535Z,99.90
2023-06-27T13:08:34.448Z,99.90
2023-06-27T13:11:01.950Z,99.90
2023-06-27T13:13:31.562Z,99.90
2023-06-27T13:16:14.245Z,99.90
2023-06-27T13:18:43.401Z,99.90
2023-06-27T13:21:10.727Z,99.90
2023-06-27T13:23:38.075Z,99.90
2023-06-27T13:26:05.543Z,99.90
2023-06-27T13:28:32.993Z,99.90
2023-06-27T13:31:00.344Z,99.90
2023-06-27T13:33:27.722Z,99.90
2023-06-27T13:35:56.293Z,99.90
2023-06-27T13:38:24.563Z,99.90
2023-06-27T13:40:51.984Z,99.90
2023-06-27T13:43:19.355Z,99.90
2023-06-27T13:45:48.295Z,99.90
2023-06-27T13:48:15.767Z,99.90
2023-06-27T13:50:43.207Z,99.90
2023-06-27T13:53:10.916Z,99.90
2023-06-27T13:55:38.273Z,99.90
2023-06-27T13:58:05.744Z,99.90
2023-06-27T14:00:33.175Z,99.90
2023-06-27T14:03:02.876Z,99.90
2023-06-27T14:05:30.660Z,99.90
2023-06-27T14:07:58.857Z,99.90
2023-06-27T14:10:29.461Z,99.90
2023-06-27T14:12:57.166Z,99.90
2023-06-27T14:15:24.860Z,99.90
2023-06-27T14:17:52.387Z,99.90
2023-06-27T14:20:20.116Z,99.90
2023-06-27T14:22:47.594Z,99.90
2023-06-27T14:25:15.198Z,99.90
2023-06-27T14:27:42.848Z,99.90
2023-06-27T14:30:10.348Z,99.90
2023-06-27T14:32:38.107Z,99.90
2023-06-27T14:35:06.084Z,99.90
2023-06-27T14:37:33.478Z,99.90
2023-06-27T14:40:00.869Z,99.90
2023-06-27T14:42:30.029Z,99.90
2023-06-27T14:44:57.832Z,99.90
2023-06-27T14:47:25.449Z,99.90
2023-06-27T14:49:52.884Z,99.90
2023-06-27T14:52:21.070Z,99.90
2023-06-27T14:54:48.634Z,99.90
2023-06-27T14:57:17.725Z,99.90
2023-06-27T14:59:45.156Z,99.90
2023-06-27T15:02:12.800Z,99.90
2023-06-27T15:04:40.305Z,99.90
2023-06-27T15:07:07.755Z,99.90
2023-06-27T15:09:35.039Z,99.90
2023-06-27T15:12:02.469Z,99.90
2023-06-27T15:14:29.924Z,99.90
2023-06-27T15:16:57.743Z,99.90
2023-06-27T15:19:25.259Z,99.90
2023-06-27T15:21:52.838Z,99.90
2023-06-27T15:24:20.382Z,99.90
2023-06-27T15:26:47.783Z,99.90
2023-06-27T15:29:15.379Z,99.90
2023-06-27T15:31:42.994Z,99.90
2023-06-27T15:34:10.436Z,99.90
2023-06-27T15:36:37.973Z,99.90
2023-06-27T15:39:05.446Z,99.90
2023-06-27T15:41:32.768Z,99.90
2023-06-27T15:44:00.001Z,99.90
2023-06-27T15:46:27.550Z,99.90
2023-06-27T15:48:55.390Z,99.90
2023-06-27T15:51:22.701Z,99.90
2023-06-27T15:53:49.965Z,99.90
2023-06-27T15:56:18.684Z,99.90
2023-06-27T15:58:46.094Z,99.90
2023-06-27T16:01:13.599Z,99.90
2023-06-27T16:03:41.288Z,99.90
2023-06-27T16:06:08.869Z,99.90
2023-06-27T16:08:36.254Z,99.90
2023-06-27T16:11:03.837Z,99.90
2023-06-27T16:13:31.227Z,99.90
2023-06-27T16:15:58.949Z,99.90
2023-06-27T16:18:26.970Z,99.90
2023-06-27T16:20:54.482Z,99.90
2023-06-27T16:23:22.019Z,99.90
2023-06-27T16:25:49.594Z,99.90
2023-06-27T16:28:17.883Z,99.90
2023-06-27T16:30:45.629Z,99.90
2023-06-27T16:33:13.415Z,99.90
2023-06-27T16:35:40.727Z,99.90
2023-06-27T16:38:08.099Z,99.90
2023-06-27T16:40:37.301Z,99.90
2023-06-27T16:43:04.862Z,99.90
2023-06-27T16:45:34.078Z,99.90
2023-06-27T16:48:02.023Z,99.90
2023-06-27T16:50:29.574Z,99.90
2023-06-27T16:52:56.968Z,99.90
2023-06-27T16:55:24.379Z,99.90
2023-06-27T16:57:51.849Z,99.90
2023-06-27T17:00:19.384Z,99.90
2023-06-27T17:02:49.454Z,99.90
2023-06-27T17:05:17.218Z,99.90
2023-06-27T17:07:46.366Z,99.90
2023-06-27T17:10:13.880Z,99.90
2023-06-27T17:12:41.503Z,99.90
2023-06-27T17:15:09.389Z,99.90
2023-06-27T17:17:36.848Z,99.90
2023-06-27T17:20:04.507Z,99.90
2023-06-27T17:22:31.945Z,99.90
2023-06-27T17:24:59.317Z,99.90
2023-06-27T17:27:26.955Z,99.90
2023-06-27T17:29:54.576Z,99.90
2023-06-27T17:32:22.550Z,99.90
2023-06-27T17:34:50.049Z,99.90
2023-06-27T17:37:17.408Z,99.90
2023-06-27T17:39:44.860Z,99.90
2023-06-27T17:42:13.145Z,99.90
2023-06-27T17:44:40.508Z,99.90
2023-06-27T17:47:08.837Z,99.90
2023-06-27T17:49:36.528Z,99.90
2023-06-27T17:52:04.637Z,99.90
2023-06-27T17:54:32.073Z,99.90
2023-06-27T17:56:59.575Z,99.90
2023-06-27T17:59:27.120Z,99.90
2023-06-27T18:01:55.318Z,99.90
2023-06-27T18:04:23.173Z,99.90
2023-06-27T18:06:50.673Z,99.90
2023-06-27T18:09:18.160Z,99.90
2023-06-27T18:11:46.284Z,99.90
2023-06-27T18:14:14.385Z,99.90
2023-06-27T18:16:42.009Z,99.90
2023-06-27T18:19:09.443Z,99.90
2023-06-27T18:21:37.636Z,99.90
2023-06-27T18:24:05.365Z,99.90
2023-06-27T18:26:32.650Z,99.90
2023-06-27T18:29:00.899Z,99.90
2023-06-27T18:31:28.279Z,99.90
2023-06-27T18:33:56.673Z,99.90
2023-06-27T18:36:24.564Z,99.90
2023-06-27T18:38:52.010Z,99.90
2023-06-27T18:41:19.495Z,99.90
2023-06-27T18:43:49.977Z,99.90
2023-06-27T18:46:17.412Z,99.90
2023-06-27T18:48:44.812Z,99.90
2023-06-27T18:51:12.106Z,99.90
2023-06-27T18:53:39.534Z,99.90
2023-06-27T18:56:06.942Z,99.90
2023-06-27T18:58:34.292Z,99.90
2023-06-27T19:01:02.883Z,99.90
2023-06-27T19:03:30.176Z,99.90
2023-06-27T19:05:57.694Z,99.90
2023-06-27T19:08:25.069Z,99.90
2023-06-27T19:10:52.389Z,99.90
2023-06-27T19:13:20.521Z,99.90
2023-06-27T19:15:47.887Z,99.90
2023-06-27T19:18:15.536Z,99.90
2023-06-27T19:20:43.576Z,99.90
2023-06-27T19:23:11.355Z,99.90
2023-06-27T19:25:38.772Z,99.90
2023-06-27T19:28:06.497Z,99.90
2023-06-27T19:30:33.806Z,99.90
2023-06-27T19:33:01.558Z,99.90
2023-06-27T19:35:30.390Z,99.90
2023-06-27T19:37:58.307Z,99.90
2023-06-27T19:40:25.619Z,99.90
2023-06-27T19:42:53.037Z,99.90
2023-06-27T19:45:20.526Z,99.90
2023-06-27T19:47:48.096Z,99.90
2023-06-27T19:50:15.629Z,99.90
2023-06-27T19:52:42.972Z,99.90
2023-06-27T19:55:10.417Z,99.90
2023-06-27T19:57:37.893Z,99.90
2023-06-27T20:00:05.868Z,99.90
2023-06-27T20:02:33.364Z,99.90
2023-06-27T20:05:00.717Z,99.90
2023-06-27T20:07:28.075Z,99.90
2023-06-27T20:09:55.475Z,99.90
2023-06-27T20:12:23.183Z,99.90
2023-06-27T20:14:50.440Z,99.90
2023-06-27T20:17:17.796Z,99.90
2023-06-27T20:19:45.147Z,99.90
2023-06-27T20:22:12.508Z,99.90
2023-06-27T20:24:39.936Z,99.90
2023-06-27T20:27:08.192Z,99.90
2023-06-27T20:29:35.519Z,99.90
2023-06-27T20:32:03.059Z,99.90
2023-06-27T20:34:31.457Z,99.90
2023-06-27T20:36:59.282Z,99.90
2023-06-27T20:39:26.607Z,99.90
2023-06-27T20:41:53.964Z,99.90
2023-06-27T20:44:21.439Z,99.90
2023-06-27T20:46:52.657Z,99.90
2023-06-27T20:49:20.232Z,99.90
2023-06-27T20:51:48.250Z,99.90
2023-06-27T20:54:15.750Z,99.90
2023-06-27T20:56:43.101Z,99.90
2023-06-27T20:59:10.430Z,99.90
2023-06-27T21:01:37.910Z,99.90
2023-06-27T21:04:05.770Z,99.90
2023-06-27T21:06:33.269Z,99.90
2023-06-27T21:09:00.802Z,99.90
2023-06-27T21:11:28.210Z,99.90
2023-06-27T21:13:55.490Z,99.90
2023-06-27T21:16:22.783Z,99.90
2023-06-27T21:18:50.356Z,99.90
2023-06-27T21:21:17.726Z,99.90
2023-06-27T21:23:45.040Z,99.90
2023-06-27T21:26:12.428Z,99.90
2023-06-27T21:28:40.008Z,99.90
2023-06-27T21:31:11.188Z,99.90
2023-06-27T21:33:38.569Z,99.90
2023-06-27T21:36:06.702Z,99.90
2023-06-27T21:38:34.110Z,99.90
2023-06-27T21:41:01.626Z,99.90
2023-06-27T21:43:29.132Z,99.90
2023-06-27T21:45:56.428Z,99.90
2023-06-27T21:48:23.865Z,99.90
2023-06-27T21:50:51.301Z,99.90
2023-06-27T21:53:18.758Z,99.90
2023-06-27T21:55:46.287Z,99.90
2023-06-27T21:58:14.711Z,99.90
2023-06-27T22:00:43.009Z,99.90
2023-06-27T22:03:15.478Z,99.90
2023-06-27T22:05:43.202Z,99.90
2023-06-27T22:08:10.870Z,99.90
2023-06-27T22:10:38.487Z,99.90
2023-06-27T22:13:06.009Z,99.90
2023-06-27T22:15:33.749Z,99.90
2023-06-27T22:18:01.622Z,99.90
2023-06-27T22:20:29.976Z,99.90
2023-06-27T22:22:57.475Z,99.90
2023-06-27T22:25:24.841Z,99.90
2023-06-27T22:27:52.365Z,99.90
2023-06-27T22:30:20.086Z,99.90
2023-06-27T22:32:48.067Z,99.90
2023-06-27T22:35:15.673Z,99.90
2023-06-27T22:37:42.995Z,99.90
2023-06-27T22:40:11.802Z,99.90
2023-06-27T22:42:39.589Z,99.90
2023-06-27T22:45:07.492Z,99.90
2023-06-27T22:47:37.071Z,99.90
2023-06-27T22:50:04.766Z,99.90
2023-06-27T22:52:32.345Z,99.90
2023-06-27T22:55:00.457Z,99.90
2023-06-27T22:57:28.077Z,99.90
2023-06-27T22:59:55.587Z,99.90
2023-06-27T23:02:23.105Z,99.90
2023-06-27T23:04:50.890Z,99.90
2023-06-27T23:07:18.422Z,99.90
2023-06-27T23:09:46.138Z,99.90
2023-06-27T23:12:13.708Z,99.90
2023-06-27T23:14:41.200Z,99.90
2023-06-27T23:17:10.749Z,99.90
2023-06-27T23:19:38.311Z,99.90
2023-06-27T23:22:12.546Z,99.90
2023-06-27T23:24:40.094Z,99.90
2023-06-27T23:27:07.675Z,99.90
2023-06-27T23:29:37.749Z,99.90
2023-06-27T23:32:06.411Z,99.90
2023-06-27T23:34:34.086Z,99.90
2023-06-27T23:37:01.555Z,99.90
2023-06-27T23:39:29.145Z,99.90
2023-06-27T23:41:57.266Z,99.90
2023-06-27T23:44:24.964Z,99.90
2023-06-27T23:46:52.440Z,99.90
2023-06-27T23:49:19.821Z,99.90
2023-06-27T23:51:47.226Z,99.90
2023-06-27T23:54:14.731Z,99.90
2023-06-27T23:56:42.282Z,99.90
2023-06-27T23:59:09.752Z,99.90
